sensor_id;sensor_type;location;lat;lon;timestamp;temperature;humidity
68385;DHT22;55336;43.062;25.626;2023-11-22T00:01:03;8.20;99.90
68385;DHT22;55336;43.062;25.626;2023-11-22T00:03:29;8.10;99.90
68385;DHT22;55336;43.062;25.626;2023-11-22T00:05:55;8.10;99.90
68385;DHT22;55336;43.062;25.626;2023-11-22T00:08:21;8.20;99.90
68385;DHT22;55336;43.062;25.626;2023-11-22T00:10:47;8.20;99.90
68385;DHT22;55336;43.062;25.626;2023-11-22T00:13:13;8.20;99.90
68385;DHT22;55336;43.062;25.626;2023-11-22T00:15:39;8.20;99.90
68385;DHT22;55336;43.062;25.626;2023-11-22T00:18:04;8.20;99.90
68385;DHT22;55336;43.062;25.626;2023-11-22T00:20:30;8.20;99.90
68385;DHT22;55336;43.062;25.626;2023-11-22T00:22:56;8.20;99.90
68385;DHT22;55336;43.062;25.626;2023-11-22T00:25:22;8.20;99.90
68385;DHT22;55336;43.062;25.626;2023-11-22T00:27:48;8.20;99.90
68385;DHT22;55336;43.062;25.626;2023-11-22T00:30:14;8.20;99.90
68385;DHT22;55336;43.062;25.626;2023-11-22T00:32:40;8.20;99.90
68385;DHT22;55336;43.062;25.626;2023-11-22T00:35:07;8.20;99.90
68385;DHT22;55336;43.062;25.626;2023-11-22T00:37:33;8.20;99.90
68385;DHT22;55336;43.062;25.626;2023-11-22T00:40:00;8.20;99.90
68385;DHT22;55336;43.062;25.626;2023-11-22T00:42:31;8.20;99.90
68385;DHT22;55336;43.062;25.626;2023-11-22T00:44:57;8.20;99.90
68385;DHT22;55336;43.062;25.626;2023-11-22T00:47:23;8.20;99.90
68385;DHT22;55336;43.062;25.626;2023-11-22T00:49:49;8.20;99.90
68385;DHT22;55336;43.062;25.626;2023-11-22T00:52:15;8.20;99.90
68385;DHT22;55336;43.062;25.626;2023-11-22T00:54:41;8.20;99.90
68385;DHT22;55336;43.062;25.626;2023-11-22T00:57:06;7.70;99.90
68385;DHT22;55336;43.062;25.626;2023-11-22T00:59:32;8.30;99.90
68385;DHT22;55336;43.062;25.626;2023-11-22T01:01:58;8.30;99.90
68385;DHT22;55336;43.062;25.626;2023-11-22T01:04:24;8.30;99.90
68385;DHT22;55336;43.062;25.626;2023-11-22T01:06:49;8.40;99.90
68385;DHT22;55336;43.062;25.626;2023-11-22T01:09:15;8.40;99.90
68385;DHT22;55336;43.062;25.626;2023-11-22T01:11:42;8.60;99.90
68385;DHT22;55336;43.062;25.626;2023-11-22T01:14:09;8.50;99.90
68385;DHT22;55336;43.062;25.626;2023-11-22T01:16:34;8.50;99.90
68385;DHT22;55336;43.062;25.626;2023-11-22T01:19:02;8.40;99.90
68385;DHT22;55336;43.062;25.626;2023-11-22T01:21:28;8.50;99.90
68385;DHT22;55336;43.062;25.626;2023-11-22T01:23:54;8.40;99.90
68385;DHT22;55336;43.062;25.626;2023-11-22T01:26:20;8.40;99.90
68385;DHT22;55336;43.062;25.626;2023-11-22T01:28:46;8.30;99.90
68385;DHT22;55336;43.062;25.626;2023-11-22T01:31:12;8.30;99.90
68385;DHT22;55336;43.062;25.626;2023-11-22T01:33:38;8.20;99.90
68385;DHT22;55336;43.062;25.626;2023-11-22T01:36:04;8.30;99.90
68385;DHT22;55336;43.062;25.626;2023-11-22T01:38:31;8.30;99.90
68385;DHT22;55336;43.062;25.626;2023-11-22T01:40:57;8.40;99.90
68385;DHT22;55336;43.062;25.626;2023-11-22T01:43:23;8.40;99.90
68385;DHT22;55336;43.062;25.626;2023-11-22T01:45:49;8.40;99.90
68385;DHT22;55336;43.062;25.626;2023-11-22T01:48:15;8.40;99.90
68385;DHT22;55336;43.062;25.626;2023-11-22T01:50:42;8.40;99.90
68385;DHT22;55336;43.062;25.626;2023-11-22T01:53:08;8.40;99.90
68385;DHT22;55336;43.062;25.626;2023-11-22T01:55:34;8.30;99.90
68385;DHT22;55336;43.062;25.626;2023-11-22T01:58:00;8.30;99.90
68385;DHT22;55336;43.062;25.626;2023-11-22T02:00:27;8.30;99.90
68385;DHT22;55336;43.062;25.626;2023-11-22T02:02:58;8.30;99.90
68385;DHT22;55336;43.062;25.626;2023-11-22T02:05:24;8.40;99.90
68385;DHT22;55336;43.062;25.626;2023-11-22T02:07:50;8.40;99.90
68385;DHT22;55336;43.062;25.626;2023-11-22T02:10:15;8.40;99.90
68385;DHT22;55336;43.062;25.626;2023-11-22T02:12:42;8.40;99.90
68385;DHT22;55336;43.062;25.626;2023-11-22T02:15:09;8.30;99.90
68385;DHT22;55336;43.062;25.626;2023-11-22T02:17:35;8.30;99.90
68385;DHT22;55336;43.062;25.626;2023-11-22T02:20:02;8.30;99.90
68385;DHT22;55336;43.062;25.626;2023-11-22T02:22:31;8.30;99.90
68385;DHT22;55336;43.062;25.626;2023-11-22T02:24:57;8.40;99.90
68385;DHT22;55336;43.062;25.626;2023-11-22T02:27:23;8.30;99.90
68385;DHT22;55336;43.062;25.626;2023-11-22T02:29:51;8.30;99.90
68385;DHT22;55336;43.062;25.626;2023-11-22T02:32:16;8.30;99.90
68385;DHT22;55336;43.062;25.626;2023-11-22T02:34:44;8.40;99.90
68385;DHT22;55336;43.062;25.626;2023-11-22T02:37:11;8.40;99.90
68385;DHT22;55336;43.062;25.626;2023-11-22T02:39:41;8.40;99.90
68385;DHT22;55336;43.062;25.626;2023-11-22T02:42:08;8.40;99.90
68385;DHT22;55336;43.062;25.626;2023-11-22T02:44:34;8.40;99.90
68385;DHT22;55336;43.062;25.626;2023-11-22T02:47:04;8.40;99.90
68385;DHT22;55336;43.062;25.626;2023-11-22T02:49:30;8.30;99.90
68385;DHT22;55336;43.062;25.626;2023-11-22T02:51:56;8.30;99.90
68385;DHT22;55336;43.062;25.626;2023-11-22T02:54:22;8.30;99.90
68385;DHT22;55336;43.062;25.626;2023-11-22T02:56:48;8.30;99.90
68385;DHT22;55336;43.062;25.626;2023-11-22T02:59:13;8.30;99.90
68385;DHT22;55336;43.062;25.626;2023-11-22T03:01:39;8.30;99.90
68385;DHT22;55336;43.062;25.626;2023-11-22T03:04:11;8.30;99.90
68385;DHT22;55336;43.062;25.626;2023-11-22T03:06:37;8.30;99.90
68385;DHT22;55336;43.062;25.626;2023-11-22T03:09:03;8.30;99.90
68385;DHT22;55336;43.062;25.626;2023-11-22T03:11:30;8.20;99.90
68385;DHT22;55336;43.062;25.626;2023-11-22T03:13:58;8.10;99.90
68385;DHT22;55336;43.062;25.626;2023-11-22T03:16:24;8.20;99.90
68385;DHT22;55336;43.062;25.626;2023-11-22T03:18:50;8.10;99.90
68385;DHT22;55336;43.062;25.626;2023-11-22T03:21:16;8.10;99.90
68385;DHT22;55336;43.062;25.626;2023-11-22T03:23:42;8.10;99.90
68385;DHT22;55336;43.062;25.626;2023-11-22T03:26:08;8.10;99.90
68385;DHT22;55336;43.062;25.626;2023-11-22T03:28:35;8.10;99.90
68385;DHT22;55336;43.062;25.626;2023-11-22T03:31:01;8.00;99.90
68385;DHT22;55336;43.062;25.626;2023-11-22T03:33:28;8.10;99.90
68385;DHT22;55336;43.062;25.626;2023-11-22T03:35:54;8.10;99.90
68385;DHT22;55336;43.062;25.626;2023-11-22T03:38:20;8.10;99.90
68385;DHT22;55336;43.062;25.626;2023-11-22T03:40:46;8.10;99.90
68385;DHT22;55336;43.062;25.626;2023-11-22T03:43:13;8.10;99.90
68385;DHT22;55336;43.062;25.626;2023-11-22T03:45:39;8.10;99.90
68385;DHT22;55336;43.062;25.626;2023-11-22T03:48:06;8.10;99.90
68385;DHT22;55336;43.062;25.626;2023-11-22T03:50:32;8.10;99.90
68385;DHT22;55336;43.062;25.626;2023-11-22T03:52:58;8.10;99.90
68385;DHT22;55336;43.062;25.626;2023-11-22T03:55:23;8.20;99.90
68385;DHT22;55336;43.062;25.626;2023-11-22T03:57:49;8.20;99.90
68385;DHT22;55336;43.062;25.626;2023-11-22T04:00:15;8.20;99.90
68385;DHT22;55336;43.062;25.626;2023-11-22T04:02:42;8.20;99.90
68385;DHT22;55336;43.062;25.626;2023-11-22T04:05:09;8.20;99.90
68385;DHT22;55336;43.062;25.626;2023-11-22T04:07:36;8.20;99.90
68385;DHT22;55336;43.062;25.626;2023-11-22T04:10:03;8.20;99.90
68385;DHT22;55336;43.062;25.626;2023-11-22T04:12:31;8.20;99.90
68385;DHT22;55336;43.062;25.626;2023-11-22T04:14:57;8.20;99.90
68385;DHT22;55336;43.062;25.626;2023-11-22T04:17:23;8.20;99.90
68385;DHT22;55336;43.062;25.626;2023-11-22T04:19:49;8.20;99.90
68385;DHT22;55336;43.062;25.626;2023-11-22T04:22:15;8.20;99.90
68385;DHT22;55336;43.062;25.626;2023-11-22T04:24:41;8.10;99.90
68385;DHT22;55336;43.062;25.626;2023-11-22T04:27:08;8.20;99.90
68385;DHT22;55336;43.062;25.626;2023-11-22T04:29:33;8.20;99.90
68385;DHT22;55336;43.062;25.626;2023-11-22T04:31:59;8.20;99.90
68385;DHT22;55336;43.062;25.626;2023-11-22T04:34:25;8.20;99.90
68385;DHT22;55336;43.062;25.626;2023-11-22T04:36:51;8.20;99.90
68385;DHT22;55336;43.062;25.626;2023-11-22T04:39:16;8.20;99.90
68385;DHT22;55336;43.062;25.626;2023-11-22T04:41:43;8.20;99.90
68385;DHT22;55336;43.062;25.626;2023-11-22T04:44:08;8.20;99.90
68385;DHT22;55336;43.062;25.626;2023-11-22T04:46:34;8.20;99.90
68385;DHT22;55336;43.062;25.626;2023-11-22T04:49:00;8.20;99.90
68385;DHT22;55336;43.062;25.626;2023-11-22T04:51:26;8.20;99.90
68385;DHT22;55336;43.062;25.626;2023-11-22T04:53:54;8.10;99.90
68385;DHT22;55336;43.062;25.626;2023-11-22T04:56:20;8.20;99.90
68385;DHT22;55336;43.062;25.626;2023-11-22T04:58:46;8.10;99.90
68385;DHT22;55336;43.062;25.626;2023-11-22T05:01:12;8.10;99.90
68385;DHT22;55336;43.062;25.626;2023-11-22T05:03:37;8.10;99.90
68385;DHT22;55336;43.062;25.626;2023-11-22T05:06:05;8.10;99.90
68385;DHT22;55336;43.062;25.626;2023-11-22T05:08:31;8.10;99.90
68385;DHT22;55336;43.062;25.626;2023-11-22T05:10:56;8.10;99.90
68385;DHT22;55336;43.062;25.626;2023-11-22T05:13:24;8.10;99.90
68385;DHT22;55336;43.062;25.626;2023-11-22T05:15:50;8.10;99.90
68385;DHT22;55336;43.062;25.626;2023-11-22T05:18:16;8.10;99.90
68385;DHT22;55336;43.062;25.626;2023-11-22T05:20:41;8.10;99.90
68385;DHT22;55336;43.062;25.626;2023-11-22T05:23:07;8.10;99.90
68385;DHT22;55336;43.062;25.626;2023-11-22T05:25:33;8.10;99.90
68385;DHT22;55336;43.062;25.626;2023-11-22T05:27:59;8.10;99.90
68385;DHT22;55336;43.062;25.626;2023-11-22T05:30:26;8.10;99.90
68385;DHT22;55336;43.062;25.626;2023-11-22T05:32:52;8.20;99.90
68385;DHT22;55336;43.062;25.626;2023-11-22T05:35:18;8.20;99.90
68385;DHT22;55336;43.062;25.626;2023-11-22T05:37:45;8.20;99.90
68385;DHT22;55336;43.062;25.626;2023-11-22T05:40:11;8.20;99.90
68385;DHT22;55336;43.062;25.626;2023-11-22T05:42:37;8.20;99.90
68385;DHT22;55336;43.062;25.626;2023-11-22T05:45:03;8.30;99.90
68385;DHT22;55336;43.062;25.626;2023-11-22T05:47:31;8.30;99.90
68385;DHT22;55336;43.062;25.626;2023-11-22T05:49:56;8.30;99.90
68385;DHT22;55336;43.062;25.626;2023-11-22T05:52:22;8.40;99.90
68385;DHT22;55336;43.062;25.626;2023-11-22T05:54:49;8.40;99.90
68385;DHT22;55336;43.062;25.626;2023-11-22T05:57:15;8.40;99.90
68385;DHT22;55336;43.062;25.626;2023-11-22T05:59:41;8.50;99.90
68385;DHT22;55336;43.062;25.626;2023-11-22T06:02:06;8.50;99.90
68385;DHT22;55336;43.062;25.626;2023-11-22T06:04:33;8.50;99.90
68385;DHT22;55336;43.062;25.626;2023-11-22T06:07:01;8.60;99.90
68385;DHT22;55336;43.062;25.626;2023-11-22T06:09:26;8.60;99.90
68385;DHT22;55336;43.062;25.626;2023-11-22T06:11:52;8.70;99.90
68385;DHT22;55336;43.062;25.626;2023-11-22T06:14:20;8.70;99.90
68385;DHT22;55336;43.062;25.626;2023-11-22T06:16:46;8.80;99.90
68385;DHT22;55336;43.062;25.626;2023-11-22T06:19:11;8.80;99.90
68385;DHT22;55336;43.062;25.626;2023-11-22T06:21:37;8.80;99.90
68385;DHT22;55336;43.062;25.626;2023-11-22T06:24:04;8.80;99.90
68385;DHT22;55336;43.062;25.626;2023-11-22T06:26:34;8.80;99.90
68385;DHT22;55336;43.062;25.626;2023-11-22T06:29:00;8.80;99.90
68385;DHT22;55336;43.062;25.626;2023-11-22T06:31:26;8.90;99.90
68385;DHT22;55336;43.062;25.626;2023-11-22T06:33:52;9.00;99.90
68385;DHT22;55336;43.062;25.626;2023-11-22T06:36:17;8.90;99.90
68385;DHT22;55336;43.062;25.626;2023-11-22T06:38:43;9.00;99.90
68385;DHT22;55336;43.062;25.626;2023-11-22T06:41:11;9.00;99.90
68385;DHT22;55336;43.062;25.626;2023-11-22T06:43:37;9.00;99.90
68385;DHT22;55336;43.062;25.626;2023-11-22T06:46:05;9.00;99.90
68385;DHT22;55336;43.062;25.626;2023-11-22T06:48:32;9.10;99.90
68385;DHT22;55336;43.062;25.626;2023-11-22T06:50:58;9.20;99.90
68385;DHT22;55336;43.062;25.626;2023-11-22T06:53:24;9.20;99.90
68385;DHT22;55336;43.062;25.626;2023-11-22T06:55:51;9.30;99.90
68385;DHT22;55336;43.062;25.626;2023-11-22T06:58:16;9.40;99.90
68385;DHT22;55336;43.062;25.626;2023-11-22T07:00:44;9.50;99.90
68385;DHT22;55336;43.062;25.626;2023-11-22T07:03:10;9.60;99.90
68385;DHT22;55336;43.062;25.626;2023-11-22T07:05:36;9.60;99.90
68385;DHT22;55336;43.062;25.626;2023-11-22T07:08:02;9.70;99.90
68385;DHT22;55336;43.062;25.626;2023-11-22T07:10:29;9.70;99.90
68385;DHT22;55336;43.062;25.626;2023-11-22T07:12:59;9.80;99.90
68385;DHT22;55336;43.062;25.626;2023-11-22T07:15:33;9.80;99.90
68385;DHT22;55336;43.062;25.626;2023-11-22T07:17:58;9.80;99.90
68385;DHT22;55336;43.062;25.626;2023-11-22T07:20:24;9.80;99.90
68385;DHT22;55336;43.062;25.626;2023-11-22T07:22:52;9.90;99.90
68385;DHT22;55336;43.062;25.626;2023-11-22T07:25:21;9.90;99.90
68385;DHT22;55336;43.062;25.626;2023-11-22T07:27:50;9.90;99.90
68385;DHT22;55336;43.062;25.626;2023-11-22T07:30:16;10.00;99.90
68385;DHT22;55336;43.062;25.626;2023-11-22T07:32:45;10.00;99.90
68385;DHT22;55336;43.062;25.626;2023-11-22T07:35:11;10.00;99.90
68385;DHT22;55336;43.062;25.626;2023-11-22T07:37:40;10.10;99.90
68385;DHT22;55336;43.062;25.626;2023-11-22T07:40:08;10.20;99.90
68385;DHT22;55336;43.062;25.626;2023-11-22T07:42:38;10.10;99.90
68385;DHT22;55336;43.062;25.626;2023-11-22T07:45:04;10.20;99.90
68385;DHT22;55336;43.062;25.626;2023-11-22T07:47:29;10.20;99.90
68385;DHT22;55336;43.062;25.626;2023-11-22T07:49:55;10.20;99.90
68385;DHT22;55336;43.062;25.626;2023-11-22T07:52:21;10.30;99.90
68385;DHT22;55336;43.062;25.626;2023-11-22T07:54:47;10.30;99.90
68385;DHT22;55336;43.062;25.626;2023-11-22T07:57:13;10.30;99.90
68385;DHT22;55336;43.062;25.626;2023-11-22T07:59:39;10.40;99.90
68385;DHT22;55336;43.062;25.626;2023-11-22T08:02:05;10.40;99.90
68385;DHT22;55336;43.062;25.626;2023-11-22T08:04:36;10.50;99.90
68385;DHT22;55336;43.062;25.626;2023-11-22T08:07:03;10.50;99.90
68385;DHT22;55336;43.062;25.626;2023-11-22T08:09:28;10.50;99.90
68385;DHT22;55336;43.062;25.626;2023-11-22T08:11:58;10.50;99.90
68385;DHT22;55336;43.062;25.626;2023-11-22T08:14:24;10.50;99.90
68385;DHT22;55336;43.062;25.626;2023-11-22T08:16:53;10.60;99.90
68385;DHT22;55336;43.062;25.626;2023-11-22T08:19:19;10.70;99.90
68385;DHT22;55336;43.062;25.626;2023-11-22T08:21:44;10.70;99.90
68385;DHT22;55336;43.062;25.626;2023-11-22T08:24:10;10.80;99.90
68385;DHT22;55336;43.062;25.626;2023-11-22T08:26:38;10.60;99.90
68385;DHT22;55336;43.062;25.626;2023-11-22T08:29:04;10.60;99.90
68385;DHT22;55336;43.062;25.626;2023-11-22T08:31:30;10.80;99.90
68385;DHT22;55336;43.062;25.626;2023-11-22T08:33:56;10.80;99.90
68385;DHT22;55336;43.062;25.626;2023-11-22T08:36:22;10.70;99.90
68385;DHT22;55336;43.062;25.626;2023-11-22T08:38:49;10.80;99.90
68385;DHT22;55336;43.062;25.626;2023-11-22T08:41:14;10.90;99.90
68385;DHT22;55336;43.062;25.626;2023-11-22T08:43:40;11.00;99.90
68385;DHT22;55336;43.062;25.626;2023-11-22T08:46:06;11.00;99.90
68385;DHT22;55336;43.062;25.626;2023-11-22T08:48:33;11.00;99.90
68385;DHT22;55336;43.062;25.626;2023-11-22T08:51:00;11.00;99.90
68385;DHT22;55336;43.062;25.626;2023-11-22T08:53:26;10.90;99.90
68385;DHT22;55336;43.062;25.626;2023-11-22T08:55:52;10.80;99.90
68385;DHT22;55336;43.062;25.626;2023-11-22T08:58:20;10.80;99.90
68385;DHT22;55336;43.062;25.626;2023-11-22T09:00:46;10.80;99.90
68385;DHT22;55336;43.062;25.626;2023-11-22T09:03:12;10.80;99.90
68385;DHT22;55336;43.062;25.626;2023-11-22T09:05:41;10.60;99.90
68385;DHT22;55336;43.062;25.626;2023-11-22T09:08:08;10.60;99.90
68385;DHT22;55336;43.062;25.626;2023-11-22T09:10:38;10.50;99.90
68385;DHT22;55336;43.062;25.626;2023-11-22T09:13:04;10.50;99.90
68385;DHT22;55336;43.062;25.626;2023-11-22T09:15:31;10.50;99.90
68385;DHT22;55336;43.062;25.626;2023-11-22T09:17:59;10.50;99.90
68385;DHT22;55336;43.062;25.626;2023-11-22T09:20:25;10.40;99.90
68385;DHT22;55336;43.062;25.626;2023-11-22T09:22:51;10.30;99.90
68385;DHT22;55336;43.062;25.626;2023-11-22T09:25:18;10.20;99.90
68385;DHT22;55336;43.062;25.626;2023-11-22T09:27:47;10.10;99.90
68385;DHT22;55336;43.062;25.626;2023-11-22T09:30:14;10.20;99.90
68385;DHT22;55336;43.062;25.626;2023-11-22T09:32:45;10.10;99.90
68385;DHT22;55336;43.062;25.626;2023-11-22T09:35:13;10.10;99.90
68385;DHT22;55336;43.062;25.626;2023-11-22T09:37:39;10.20;99.90
68385;DHT22;55336;43.062;25.626;2023-11-22T09:40:07;10.20;99.90
68385;DHT22;55336;43.062;25.626;2023-11-22T09:42:34;10.20;99.90
68385;DHT22;55336;43.062;25.626;2023-11-22T09:45:00;10.10;99.90
68385;DHT22;55336;43.062;25.626;2023-11-22T09:47:26;10.10;99.90
68385;DHT22;55336;43.062;25.626;2023-11-22T09:49:53;10.10;99.90
68385;DHT22;55336;43.062;25.626;2023-11-22T09:52:22;10.20;99.90
68385;DHT22;55336;43.062;25.626;2023-11-22T09:54:48;10.20;99.90
68385;DHT22;55336;43.062;25.626;2023-11-22T09:57:16;10.00;99.90
68385;DHT22;55336;43.062;25.626;2023-11-22T09:59:42;10.10;99.90
68385;DHT22;55336;43.062;25.626;2023-11-22T10:02:08;10.20;99.90
68385;DHT22;55336;43.062;25.626;2023-11-22T10:04:34;10.30;99.90
68385;DHT22;55336;43.062;25.626;2023-11-22T10:07:00;10.40;99.90
68385;DHT22;55336;43.062;25.626;2023-11-22T10:09:26;10.40;99.90
68385;DHT22;55336;43.062;25.626;2023-11-22T10:12:01;10.40;99.90
68385;DHT22;55336;43.062;25.626;2023-11-22T10:14:27;10.40;99.90
68385;DHT22;55336;43.062;25.626;2023-11-22T10:16:59;10.40;99.90
68385;DHT22;55336;43.062;25.626;2023-11-22T10:19:25;10.30;99.90
68385;DHT22;55336;43.062;25.626;2023-11-22T10:22:01;10.30;99.90
68385;DHT22;55336;43.062;25.626;2023-11-22T10:24:29;10.30;99.90
68385;DHT22;55336;43.062;25.626;2023-11-22T10:26:55;10.30;99.90
68385;DHT22;55336;43.062;25.626;2023-11-22T10:29:24;10.30;99.90
68385;DHT22;55336;43.062;25.626;2023-11-22T10:31:50;10.40;99.90
68385;DHT22;55336;43.062;25.626;2023-11-22T10:34:20;10.40;99.90
68385;DHT22;55336;43.062;25.626;2023-11-22T10:36:46;10.40;99.90
68385;DHT22;55336;43.062;25.626;2023-11-22T10:39:12;10.40;99.90
68385;DHT22;55336;43.062;25.626;2023-11-22T10:41:41;10.40;99.90
68385;DHT22;55336;43.062;25.626;2023-11-22T10:44:08;10.40;99.90
68385;DHT22;55336;43.062;25.626;2023-11-22T10:46:34;10.40;99.90
68385;DHT22;55336;43.062;25.626;2023-11-22T10:48:59;10.40;99.90
68385;DHT22;55336;43.062;25.626;2023-11-22T10:51:30;10.50;99.90
68385;DHT22;55336;43.062;25.626;2023-11-22T10:53:56;10.60;99.90
68385;DHT22;55336;43.062;25.626;2023-11-22T10:56:23;10.70;99.90
68385;DHT22;55336;43.062;25.626;2023-11-22T10:58:52;10.70;99.90
68385;DHT22;55336;43.062;25.626;2023-11-22T11:01:24;11.10;99.90
68385;DHT22;55336;43.062;25.626;2023-11-22T11:06:27;10.80;99.90
68385;DHT22;55336;43.062;25.626;2023-11-22T11:09:02;10.80;99.90
68385;DHT22;55336;43.062;25.626;2023-11-22T11:11:35;10.80;99.90
68385;DHT22;55336;43.062;25.626;2023-11-22T11:14:02;10.90;99.90
68385;DHT22;55336;43.062;25.626;2023-11-22T11:16:28;10.90;99.90
68385;DHT22;55336;43.062;25.626;2023-11-22T11:18:56;10.80;99.90
68385;DHT22;55336;43.062;25.626;2023-11-22T11:21:23;10.80;99.90
68385;DHT22;55336;43.062;25.626;2023-11-22T11:23:51;10.90;99.90
68385;DHT22;55336;43.062;25.626;2023-11-22T11:26:20;10.90;99.90
68385;DHT22;55336;43.062;25.626;2023-11-22T11:28:50;10.80;99.90
68385;DHT22;55336;43.062;25.626;2023-11-22T11:31:16;10.90;99.90
68385;DHT22;55336;43.062;25.626;2023-11-22T11:36:47;10.80;99.90
68385;DHT22;55336;43.062;25.626;2023-11-22T11:39:07;10.80;99.90
68385;DHT22;55336;43.062;25.626;2023-11-22T11:41:40;10.80;99.90
68385;DHT22;55336;43.062;25.626;2023-11-22T11:44:07;10.80;99.90
68385;DHT22;55336;43.062;25.626;2023-11-22T11:46:34;10.80;99.90
68385;DHT22;55336;43.062;25.626;2023-11-22T11:48:59;10.70;99.90
68385;DHT22;55336;43.062;25.626;2023-11-22T11:51:27;10.70;99.90
68385;DHT22;55336;43.062;25.626;2023-11-22T11:53:53;10.70;99.90
68385;DHT22;55336;43.062;25.626;2023-11-22T11:56:19;10.70;99.90
68385;DHT22;55336;43.062;25.626;2023-11-22T11:58:45;10.60;99.90
68385;DHT22;55336;43.062;25.626;2023-11-22T12:01:15;10.60;99.90
68385;DHT22;55336;43.062;25.626;2023-11-22T12:03:45;10.70;99.90
68385;DHT22;55336;43.062;25.626;2023-11-22T12:06:15;10.70;99.90
68385;DHT22;55336;43.062;25.626;2023-11-22T12:08:42;10.60;99.90
68385;DHT22;55336;43.062;25.626;2023-11-22T12:11:08;10.60;99.90
68385;DHT22;55336;43.062;25.626;2023-11-22T12:13:34;10.60;99.90
68385;DHT22;55336;43.062;25.626;2023-11-22T12:16:06;10.60;99.90
68385;DHT22;55336;43.062;25.626;2023-11-22T12:18:42;10.60;99.90
68385;DHT22;55336;43.062;25.626;2023-11-22T12:21:08;10.50;99.90
68385;DHT22;55336;43.062;25.626;2023-11-22T12:23:38;10.60;99.90
68385;DHT22;55336;43.062;25.626;2023-11-22T12:26:04;10.50;99.90
68385;DHT22;55336;43.062;25.626;2023-11-22T12:28:30;10.20;99.90
68385;DHT22;55336;43.062;25.626;2023-11-22T12:31:07;10.50;99.90
68385;DHT22;55336;43.062;25.626;2023-11-22T12:33:35;10.60;99.90
68385;DHT22;55336;43.062;25.626;2023-11-22T12:36:05;10.50;99.90
68385;DHT22;55336;43.062;25.626;2023-11-22T12:38:32;10.50;99.90
68385;DHT22;55336;43.062;25.626;2023-11-22T12:41:00;10.50;99.90
68385;DHT22;55336;43.062;25.626;2023-11-22T12:43:31;10.30;99.90
68385;DHT22;55336;43.062;25.626;2023-11-22T12:46:04;10.30;99.90
68385;DHT22;55336;43.062;25.626;2023-11-22T12:48:32;10.30;99.90
68385;DHT22;55336;43.062;25.626;2023-11-22T12:50:58;10.30;99.90
68385;DHT22;55336;43.062;25.626;2023-11-22T12:53:24;10.30;99.90
68385;DHT22;55336;43.062;25.626;2023-11-22T12:55:52;10.40;99.90
68385;DHT22;55336;43.062;25.626;2023-11-22T12:58:19;10.30;99.90
68385;DHT22;55336;43.062;25.626;2023-11-22T13:00:46;10.30;99.90
68385;DHT22;55336;43.062;25.626;2023-11-22T13:03:12;10.20;99.90
68385;DHT22;55336;43.062;25.626;2023-11-22T13:05:38;10.30;99.90
68385;DHT22;55336;43.062;25.626;2023-11-22T13:08:04;10.30;99.90
68385;DHT22;55336;43.062;25.626;2023-11-22T13:10:30;10.30;99.90
68385;DHT22;55336;43.062;25.626;2023-11-22T13:12:56;10.40;99.90
68385;DHT22;55336;43.062;25.626;2023-11-22T13:15:22;10.40;99.90
68385;DHT22;55336;43.062;25.626;2023-11-22T13:17:49;10.40;99.90
68385;DHT22;55336;43.062;25.626;2023-11-22T13:20:15;10.40;99.90
68385;DHT22;55336;43.062;25.626;2023-11-22T13:22:41;10.40;99.90
68385;DHT22;55336;43.062;25.626;2023-11-22T13:25:10;10.30;99.90
68385;DHT22;55336;43.062;25.626;2023-11-22T13:27:39;10.30;99.90
68385;DHT22;55336;43.062;25.626;2023-11-22T13:30:06;10.40;99.90
68385;DHT22;55336;43.062;25.626;2023-11-22T13:32:32;10.30;99.90
68385;DHT22;55336;43.062;25.626;2023-11-22T13:34:58;10.20;99.90
68385;DHT22;55336;43.062;25.626;2023-11-22T13:37:24;10.20;99.90
68385;DHT22;55336;43.062;25.626;2023-11-22T13:39:50;10.20;99.90
68385;DHT22;55336;43.062;25.626;2023-11-22T13:42:16;10.20;99.90
68385;DHT22;55336;43.062;25.626;2023-11-22T13:44:42;10.20;99.90
68385;DHT22;55336;43.062;25.626;2023-11-22T13:47:09;10.20;99.90
68385;DHT22;55336;43.062;25.626;2023-11-22T13:49:35;10.10;99.90
68385;DHT22;55336;43.062;25.626;2023-11-22T13:52:02;10.20;99.90
68385;DHT22;55336;43.062;25.626;2023-11-22T13:54:28;10.20;99.90
68385;DHT22;55336;43.062;25.626;2023-11-22T13:56:54;10.20;99.90
68385;DHT22;55336;43.062;25.626;2023-11-22T13:59:20;10.10;99.90
68385;DHT22;55336;43.062;25.626;2023-11-22T14:01:45;10.10;99.90
68385;DHT22;55336;43.062;25.626;2023-11-22T14:04:11;10.10;99.90
68385;DHT22;55336;43.062;25.626;2023-11-22T14:06:37;10.10;99.90
68385;DHT22;55336;43.062;25.626;2023-11-22T14:09:03;10.10;99.90
68385;DHT22;55336;43.062;25.626;2023-11-22T14:11:28;10.10;99.90
68385;DHT22;55336;43.062;25.626;2023-11-22T14:13:55;10.10;99.90
68385;DHT22;55336;43.062;25.626;2023-11-22T14:16:21;10.10;99.90
68385;DHT22;55336;43.062;25.626;2023-11-22T14:18:46;10.10;99.90
68385;DHT22;55336;43.062;25.626;2023-11-22T14:21:12;10.10;99.90
68385;DHT22;55336;43.062;25.626;2023-11-22T14:23:38;10.10;99.90
68385;DHT22;55336;43.062;25.626;2023-11-22T14:26:04;10.00;99.90
68385;DHT22;55336;43.062;25.626;2023-11-22T14:28:30;10.00;99.90
68385;DHT22;55336;43.062;25.626;2023-11-22T14:30:56;10.00;99.90
68385;DHT22;55336;43.062;25.626;2023-11-22T14:33:22;10.00;99.90
68385;DHT22;55336;43.062;25.626;2023-11-22T14:35:48;10.00;99.90
68385;DHT22;55336;43.062;25.626;2023-11-22T14:38:14;10.00;99.90
68385;DHT22;55336;43.062;25.626;2023-11-22T14:40:46;10.10;99.90
68385;DHT22;55336;43.062;25.626;2023-11-22T14:43:12;10.00;99.90
68385;DHT22;55336;43.062;25.626;2023-11-22T14:45:38;10.10;99.90
68385;DHT22;55336;43.062;25.626;2023-11-22T14:48:04;10.10;99.90
68385;DHT22;55336;43.062;25.626;2023-11-22T14:50:31;10.10;99.90
68385;DHT22;55336;43.062;25.626;2023-11-22T14:52:59;10.10;99.90
68385;DHT22;55336;43.062;25.626;2023-11-22T14:55:25;10.00;99.90
68385;DHT22;55336;43.062;25.626;2023-11-22T14:57:52;9.80;99.90
68385;DHT22;55336;43.062;25.626;2023-11-22T15:00:19;10.00;99.90
68385;DHT22;55336;43.062;25.626;2023-11-22T15:02:45;10.00;99.90
68385;DHT22;55336;43.062;25.626;2023-11-22T15:05:19;10.00;99.90
68385;DHT22;55336;43.062;25.626;2023-11-22T15:07:45;10.00;99.90
68385;DHT22;55336;43.062;25.626;2023-11-22T15:10:11;10.00;99.90
68385;DHT22;55336;43.062;25.626;2023-11-22T15:12:38;10.00;99.90
68385;DHT22;55336;43.062;25.626;2023-11-22T15:15:08;10.00;99.90
68385;DHT22;55336;43.062;25.626;2023-11-22T15:17:34;10.00;99.90
68385;DHT22;55336;43.062;25.626;2023-11-22T15:20:00;10.00;99.90
68385;DHT22;55336;43.062;25.626;2023-11-22T15:22:25;9.90;99.90
68385;DHT22;55336;43.062;25.626;2023-11-22T15:24:51;9.90;99.90